createdAt,value
2017-03-17T00:00:32.557Z,1008.81
2017-03-17T00:01:13.281Z,1008.83
2017-03-17T00:01:53.866Z,1008.8
2017-03-17T00:02:34.598Z,1008.8
2017-03-17T00:03:15.347Z,1008.77
2017-03-17T00:03:56.104Z,1008.79
2017-03-17T00:04:36.894Z,1008.75
2017-03-17T00:05:17.614Z,1008.78
2017-03-17T00:05:58.370Z,1008.79
2017-03-17T00:06:39.123Z,1008.78
2017-03-17T00:07:19.905Z,1008.79
2017-03-17T00:08:00.632Z,1008.74
2017-03-17T00:08:41.400Z,1008.75
2017-03-17T00:09:22.145Z,1008.75
2017-03-17T00:10:02.924Z,1008.76
2017-03-17T00:10:43.674Z,1008.77
2017-03-17T00:11:24.420Z,1008.73
2017-03-17T00:12:05.175Z,1008.71
2017-03-17T00:12:45.922Z,1008.76
2017-03-17T00:13:26.524Z,1008.72
2017-03-17T00:14:07.272Z,1008.67
2017-03-17T00:14:48.007Z,1008.72
2017-03-17T00:15:28.741Z,1008.72
2017-03-17T00:16:09.400Z,1008.69
2017-03-17T00:16:50.020Z,1008.71
2017-03-17T00:17:30.704Z,1008.73
2017-03-17T00:18:11.453Z,1008.7
2017-03-17T00:18:52.230Z,1008.69
2017-03-17T00:19:33.067Z,1008.7
2017-03-17T00:20:13.925Z,1008.65
2017-03-17T00:20:54.696Z,1008.6
2017-03-17T00:21:35.543Z,1008.61
2017-03-17T00:22:16.194Z,1008.64
2017-03-17T00:22:57.047Z,1008.62
2017-03-17T00:23:37.909Z,1008.62
2017-03-17T00:24:18.566Z,1008.63
2017-03-17T00:24:59.214Z,1008.65
2017-03-17T00:25:40.889Z,1008.67
2017-03-17T00:26:21.647Z,1008.66
2017-03-17T00:27:02.205Z,1008.63
2017-03-17T00:27:42.922Z,1008.65
2017-03-17T00:28:23.619Z,1008.64
2017-03-17T00:29:04.257Z,1008.59
2017-03-17T00:29:44.883Z,1008.61
2017-03-17T00:30:25.517Z,1008.55
2017-03-17T00:31:06.119Z,1008.59
2017-03-17T00:31:46.819Z,1008.59
2017-03-17T00:32:27.331Z,1008.59
2017-03-17T00:33:08.022Z,1008.59
2017-03-17T00:33:48.731Z,1008.58
2017-03-17T00:34:29.382Z,1008.58
2017-03-17T00:35:09.972Z,1008.58
2017-03-17T00:35:50.636Z,1008.56
2017-03-17T00:36:31.241Z,1008.57
2017-03-17T00:37:11.892Z,1008.51
2017-03-17T00:37:52.547Z,1008.49
2017-03-17T00:38:33.200Z,1008.42
2017-03-17T00:39:13.851Z,1008.4
2017-03-17T00:39:54.505Z,1008.37
2017-03-17T00:40:35.159Z,1008.39
2017-03-17T00:41:15.811Z,1008.39
2017-03-17T00:41:56.464Z,1008.38
2017-03-17T00:42:37.061Z,1008.41
2017-03-17T00:43:17.677Z,1008.47
2017-03-17T00:43:58.321Z,1008.49
2017-03-17T00:44:38.906Z,1008.54
2017-03-17T00:45:19.545Z,1008.55
2017-03-17T00:46:00.186Z,1008.57
2017-03-17T00:46:40.732Z,1008.56
2017-03-17T00:47:21.402Z,1008.56
2017-03-17T00:48:02.033Z,1008.55
2017-03-17T00:48:42.696Z,1008.52
2017-03-17T00:49:23.359Z,1008.53
2017-03-17T00:50:03.988Z,1008.5
2017-03-17T00:50:44.637Z,1008.49
2017-03-17T00:51:25.304Z,1008.49
2017-03-17T00:52:05.950Z,1008.52
2017-03-17T00:52:46.612Z,1008.48
2017-03-17T00:53:27.265Z,1008.46
2017-03-17T00:54:07.918Z,1008.44
2017-03-17T00:54:48.572Z,1008.47
2017-03-17T00:55:29.212Z,1008.46
2017-03-17T00:56:09.865Z,1008.46
2017-03-17T00:56:50.541Z,1008.44
2017-03-17T00:57:31.175Z,1008.44
2017-03-17T00:58:11.778Z,1008.43
2017-03-17T00:58:52.529Z,1008.43
2017-03-17T00:59:33.263Z,1008.45
2017-03-17T01:00:13.895Z,1008.43
2017-03-17T01:00:54.508Z,1008.47
2017-03-17T01:01:35.168Z,1008.46
2017-03-17T01:02:15.858Z,1008.45
2017-03-17T01:02:56.431Z,1008.52
2017-03-17T01:03:37.070Z,1008.48
2017-03-17T01:04:17.710Z,1008.48
2017-03-17T01:04:58.329Z,1008.45
2017-03-17T01:05:39.031Z,1008.4
2017-03-17T01:06:19.656Z,1008.45
2017-03-17T01:07:00.261Z,1008.4
2017-03-17T01:07:40.862Z,1008.37
2017-03-17T01:08:21.516Z,1008.39
2017-03-17T01:09:02.169Z,1008.4
2017-03-17T01:09:42.833Z,1008.39
2017-03-17T01:10:23.578Z,1008.38
2017-03-17T01:11:04.240Z,1008.39
2017-03-17T01:11:44.886Z,1008.4
2017-03-17T01:12:25.454Z,1008.36
2017-03-17T01:13:06.185Z,1008.37
2017-03-17T01:13:46.899Z,1008.38
2017-03-17T01:14:27.605Z,1008.38
2017-03-17T01:15:08.177Z,1008.38
2017-03-17T01:15:48.900Z,1008.38
2017-03-17T01:16:29.562Z,1008.42
2017-03-17T01:17:10.320Z,1008.43
2017-03-17T01:17:50.973Z,1008.45
2017-03-17T01:18:31.627Z,1008.49
2017-03-17T01:19:12.278Z,1008.46
2017-03-17T01:19:52.931Z,1008.42
2017-03-17T01:20:33.574Z,1008.47
2017-03-17T01:21:14.328Z,1008.46
2017-03-17T01:21:54.992Z,1008.48
2017-03-17T01:22:35.645Z,1008.44
2017-03-17T01:23:16.299Z,1008.45
2017-03-17T01:23:56.967Z,1008.41
2017-03-17T01:24:37.603Z,1008.45
2017-03-17T01:25:18.311Z,1008.42
2017-03-17T01:25:58.914Z,1008.41
2017-03-17T01:26:39.564Z,1008.42
2017-03-17T01:27:20.138Z,1008.42
2017-03-17T01:28:01.399Z,1008.39
2017-03-17T01:28:42.039Z,1008.42
2017-03-17T01:29:22.688Z,1008.4
2017-03-17T01:30:03.238Z,1008.4
2017-03-17T01:30:43.950Z,1008.4
2017-03-17T01:31:24.635Z,1008.41
2017-03-17T01:32:05.300Z,1008.42
2017-03-17T01:32:45.873Z,1008.46
2017-03-17T01:33:26.589Z,1008.46
2017-03-17T01:34:07.254Z,1008.46
2017-03-17T01:34:47.911Z,1008.44
2017-03-17T01:35:28.531Z,1008.43
2017-03-17T01:36:09.198Z,1008.42
2017-03-17T01:36:49.868Z,1008.43
2017-03-17T01:37:30.623Z,1008.43
2017-03-17T01:38:11.202Z,1008.44
2017-03-17T01:38:51.867Z,1008.42
2017-03-17T01:39:32.480Z,1008.42
2017-03-17T01:40:13.233Z,1008.42
2017-03-17T01:40:53.721Z,1008.42
2017-03-17T01:41:34.367Z,1008.41
2017-03-17T01:42:14.991Z,1008.38
2017-03-17T01:42:55.631Z,1008.41
2017-03-17T01:43:36.203Z,1008.37
2017-03-17T01:44:16.845Z,1008.41
2017-03-17T01:44:57.494Z,1008.38
2017-03-17T01:45:38.067Z,1008.36
2017-03-17T01:46:18.728Z,1008.37
2017-03-17T01:46:59.350Z,1008.39
2017-03-17T01:47:40.009Z,1008.37
2017-03-17T01:48:20.759Z,1008.38
2017-03-17T01:49:01.416Z,1008.39
2017-03-17T01:49:42.060Z,1008.36
2017-03-17T01:50:22.722Z,1008.35
2017-03-17T01:51:03.374Z,1008.34
2017-03-17T01:51:44.028Z,1008.36
2017-03-17T01:52:24.677Z,1008.31
2017-03-17T01:53:05.333Z,1008.3
2017-03-17T01:53:45.988Z,1008.28
2017-03-17T01:54:26.634Z,1008.32
2017-03-17T01:55:07.292Z,1008.36
2017-03-17T01:55:48.046Z,1008.34
2017-03-17T01:56:28.709Z,1008.35
2017-03-17T01:57:09.354Z,1008.35
2017-03-17T01:57:49.998Z,1008.38
2017-03-17T01:58:30.670Z,1008.32
2017-03-17T01:59:11.315Z,1008.35
2017-03-17T01:59:51.965Z,1008.33
2017-03-17T02:00:32.646Z,1008.37
2017-03-17T02:01:13.375Z,1008.4
2017-03-17T02:01:54.026Z,1008.4
2017-03-17T02:02:34.679Z,1008.43
2017-03-17T02:03:15.341Z,1008.42
2017-03-17T02:03:55.988Z,1008.38
2017-03-17T02:04:36.647Z,1008.38
2017-03-17T02:05:17.373Z,1008.36
2017-03-17T02:05:57.945Z,1008.38
2017-03-17T02:06:38.601Z,1008.33
2017-03-17T02:07:19.253Z,1008.38
2017-03-17T02:07:59.924Z,1008.35
2017-03-17T02:08:40.861Z,1008.35
2017-03-17T02:09:21.627Z,1008.34
2017-03-17T02:10:02.274Z,1008.39
2017-03-17T02:10:42.941Z,1008.37
2017-03-17T02:11:23.585Z,1008.34
2017-03-17T02:12:04.227Z,1008.35
2017-03-17T02:12:44.885Z,1008.35
2017-03-17T02:13:25.538Z,1008.35
2017-03-17T02:14:06.191Z,1008.34
2017-03-17T02:14:46.839Z,1008.36
2017-03-17T02:15:27.496Z,1008.34
2017-03-17T02:16:08.212Z,1008.35
2017-03-17T02:16:49.931Z,1008.34
2017-03-17T02:17:30.490Z,1008.4
2017-03-17T02:18:11.194Z,1008.35
2017-03-17T02:18:51.884Z,1008.33
2017-03-17T02:19:32.543Z,1008.36
2017-03-17T02:20:13.099Z,1008.31
2017-03-17T02:20:53.806Z,1008.29
2017-03-17T02:21:34.495Z,1008.26
2017-03-17T02:22:15.143Z,1008.22
2017-03-17T02:22:55.702Z,1008.22
2017-03-17T02:23:36.429Z,1008.21
2017-03-17T02:24:17.111Z,1008.19
2017-03-17T02:24:57.763Z,1008.2
2017-03-17T02:25:38.334Z,1008.18
2017-03-17T02:26:19.025Z,1008.14
2017-03-17T02:26:59.726Z,1008.13
2017-03-17T02:27:40.368Z,1008.15
2017-03-17T02:28:20.929Z,1008.17
2017-03-17T02:29:01.624Z,1008.16
2017-03-17T02:29:42.334Z,1008.15
2017-03-17T02:30:22.982Z,1008.16
2017-03-17T02:31:03.542Z,1008.15
2017-03-17T02:31:44.257Z,1008.15
2017-03-17T02:32:24.940Z,1008.16
2017-03-17T02:33:05.634Z,1008.12
2017-03-17T02:33:46.245Z,1008.09
2017-03-17T02:34:26.903Z,1008.07
2017-03-17T02:35:07.553Z,1008.11
2017-03-17T02:35:48.203Z,1008.08
2017-03-17T02:36:28.872Z,1008.05
2017-03-17T02:37:09.511Z,1008.05
2017-03-17T02:37:50.165Z,1008.06
2017-03-17T02:38:30.838Z,1008.08
2017-03-17T02:39:11.494Z,1008.06
2017-03-17T02:39:52.129Z,1008.07
2017-03-17T02:40:32.777Z,1008.11
2017-03-17T02:41:13.450Z,1008.13
2017-03-17T02:41:54.080Z,1008.14
2017-03-17T02:42:34.734Z,1008.15
2017-03-17T02:43:15.398Z,1008.11
2017-03-17T02:43:56.041Z,1008.06
2017-03-17T02:44:36.818Z,1008.06
2017-03-17T02:45:17.553Z,1008.08
2017-03-17T02:45:58.201Z,1008.05
2017-03-17T02:46:39.883Z,1008.08
2017-03-17T02:47:20.762Z,1008.14
2017-03-17T02:48:01.419Z,1008.11
2017-03-17T02:48:42.042Z,1008.13
2017-03-17T02:49:22.701Z,1008.12
2017-03-17T02:50:03.352Z,1008.06
2017-03-17T02:50:45.028Z,1008.1
2017-03-17T02:51:25.700Z,1008.07
2017-03-17T02:52:06.335Z,1008.09
2017-03-17T02:52:46.988Z,1008.11
2017-03-17T02:53:27.586Z,1008.11
2017-03-17T02:54:08.267Z,1008.12
2017-03-17T02:54:48.947Z,1008.09
2017-03-17T02:55:29.598Z,1008.11
2017-03-17T02:56:10.170Z,1008.12
2017-03-17T02:56:50.854Z,1008.15
2017-03-17T02:57:31.557Z,1008.15
2017-03-17T02:58:12.213Z,1008.1
2017-03-17T02:58:52.780Z,1008.11
2017-03-17T02:59:33.490Z,1008.11
2017-03-17T03:00:14.181Z,1008.13
2017-03-17T03:00:54.825Z,1008.14
2017-03-17T03:01:35.397Z,1008.12
2017-03-17T03:02:16.086Z,1008.11
2017-03-17T03:02:56.782Z,1008.11
2017-03-17T03:03:37.440Z,1008.07
2017-03-17T03:04:18.005Z,1008.1
2017-03-17T03:04:58.720Z,1008.08
2017-03-17T03:05:39.395Z,1008.07
2017-03-17T03:06:21.082Z,1008.06
2017-03-17T03:07:01.641Z,1008.06
2017-03-17T03:07:42.332Z,1008.02
2017-03-17T03:08:23.030Z,1008.03
2017-03-17T03:09:03.599Z,1008.02
2017-03-17T03:09:44.229Z,1007.97
2017-03-17T03:10:24.885Z,1008.01
2017-03-17T03:11:05.449Z,1008.02
2017-03-17T03:11:46.083Z,1007.97
2017-03-17T03:12:26.745Z,1008
2017-03-17T03:13:07.393Z,1008.04
2017-03-17T03:13:48.053Z,1008.03
2017-03-17T03:14:28.710Z,1008.05
2017-03-17T03:15:09.363Z,1008.04
2017-03-17T03:15:50.016Z,1008.04
2017-03-17T03:16:30.657Z,1008.03
2017-03-17T03:17:11.324Z,1008.07
2017-03-17T03:17:51.963Z,1008.05
2017-03-17T03:18:32.729Z,1008
2017-03-17T03:19:13.382Z,1008.01
2017-03-17T03:19:54.139Z,1007.97
2017-03-17T03:20:34.791Z,1008
2017-03-17T03:21:15.449Z,1008.05
2017-03-17T03:21:56.199Z,1007.96
2017-03-17T03:22:36.752Z,1007.94
2017-03-17T03:23:17.456Z,1007.93
2017-03-17T03:23:58.145Z,1007.95
2017-03-17T03:24:38.799Z,1007.91
2017-03-17T03:25:19.399Z,1007.93
2017-03-17T03:26:00.081Z,1007.93
2017-03-17T03:26:40.755Z,1007.96
2017-03-17T03:27:21.521Z,1007.89
2017-03-17T03:28:02.075Z,1007.91
2017-03-17T03:28:42.794Z,1007.89
2017-03-17T03:29:23.468Z,1007.87
2017-03-17T03:30:04.132Z,1007.88
2017-03-17T03:30:44.735Z,1007.91
2017-03-17T03:31:25.428Z,1007.88
2017-03-17T03:32:06.097Z,1007.91
2017-03-17T03:32:46.845Z,1007.92
2017-03-17T03:33:27.502Z,1007.88
2017-03-17T03:34:08.151Z,1007.92
2017-03-17T03:34:48.826Z,1007.94
2017-03-17T03:35:29.559Z,1007.91
2017-03-17T03:36:10.215Z,1007.92
2017-03-17T03:36:50.869Z,1007.9
2017-03-17T03:37:31.619Z,1007.91
2017-03-17T03:38:12.277Z,1007.91
2017-03-17T03:38:52.956Z,1007.98
2017-03-17T03:39:33.585Z,1007.92
2017-03-17T03:40:14.237Z,1007.96
2017-03-17T03:40:54.919Z,1007.93
2017-03-17T03:41:35.646Z,1007.91
2017-03-17T03:42:16.400Z,1007.93
2017-03-17T03:42:57.053Z,1007.93
2017-03-17T03:43:37.706Z,1007.95
2017-03-17T03:44:18.357Z,1007.97
2017-03-17T03:44:59.006Z,1007.99
2017-03-17T03:45:39.774Z,1007.94
2017-03-17T03:46:20.420Z,1008
2017-03-17T06:02:51.963Z,1008.11
2017-03-17T06:03:32.554Z,1008.1
2017-03-17T06:04:13.276Z,1008.13
2017-03-17T06:04:53.863Z,1008.11
2017-03-17T06:05:34.415Z,1008.09
2017-03-17T06:06:15.080Z,1008.12
2017-03-17T06:06:55.668Z,1008.15
2017-03-17T06:07:36.325Z,1008.11
2017-03-17T06:08:16.980Z,1008.13
2017-03-17T06:08:57.632Z,1008.16
2017-03-17T06:09:38.283Z,1008.16
2017-03-17T06:10:18.938Z,1008.16
2017-03-17T06:10:59.527Z,1008.17
2017-03-17T06:11:40.142Z,1008.16
2017-03-17T06:12:20.791Z,1008.19
2017-03-17T06:13:01.356Z,1008.19
2017-03-17T06:13:41.997Z,1008.16
2017-03-17T06:14:22.575Z,1008.2
2017-03-17T06:15:04.479Z,1008.22
2017-03-17T06:15:45.080Z,1008.22
2017-03-17T06:16:25.666Z,1008.21
2017-03-17T06:17:06.293Z,1008.21
2017-03-17T06:17:47.038Z,1008.25
2017-03-17T06:18:29.638Z,1008.24
2017-03-17T06:19:15.207Z,1008.23
2017-03-17T06:19:57.840Z,1008.25
2017-03-17T06:20:40.505Z,1008.22
2017-03-17T06:21:21.168Z,1008.18
2017-03-17T06:22:02.835Z,1008.21
2017-03-17T06:22:49.213Z,1008.2
2017-03-17T06:23:31.822Z,1008.19
2017-03-17T06:24:12.473Z,1008.19
2017-03-17T06:24:57.734Z,1008.17
2017-03-17T06:25:38.386Z,1008.21
2017-03-17T06:26:19.039Z,1008.21
2017-03-17T06:26:59.690Z,1008.22
2017-03-17T06:27:40.257Z,1008.2
2017-03-17T06:28:31.505Z,1008.2
2017-03-17T06:29:12.271Z,1008.19
2017-03-17T06:29:53.978Z,1008.18
2017-03-17T06:30:34.594Z,1008.19
2017-03-17T06:31:15.190Z,1008.2
2017-03-17T06:31:55.829Z,1008.18
2017-03-17T06:32:36.390Z,1008.18
2017-03-17T06:33:17.040Z,1008.22
2017-03-17T06:33:58.714Z,1008.21
2017-03-17T06:34:39.286Z,1008.24
2017-03-17T06:35:26.479Z,1008.22
2017-03-17T06:36:08.146Z,1008.24
2017-03-17T06:36:48.726Z,1008.24
2017-03-17T06:37:39.998Z,1008.27
2017-03-17T06:38:20.681Z,1008.28
2017-03-17T06:39:01.261Z,1008.27
2017-03-17T06:39:46.463Z,1008.31
2017-03-17T06:40:27.121Z,1008.31
2017-03-17T06:41:07.700Z,1008.29
2017-03-17T06:41:48.345Z,1008.34
2017-03-17T06:42:28.898Z,1008.37
2017-03-17T06:43:09.550Z,1008.35
2017-03-17T06:43:50.197Z,1008.39
2017-03-17T06:44:30.755Z,1008.4
2017-03-17T06:45:11.329Z,1008.42
2017-03-17T06:45:52.115Z,1008.42
2017-03-17T06:46:32.701Z,1008.46
2017-03-17T06:47:13.267Z,1008.49
2017-03-17T06:47:53.961Z,1008.48
2017-03-17T06:48:34.669Z,1008.48
2017-03-17T06:49:15.317Z,1008.5
2017-03-17T06:49:55.980Z,1008.47
2017-03-17T06:50:36.628Z,1008.5
2017-03-17T06:51:17.212Z,1008.48
2017-03-17T06:51:57.922Z,1008.5
2017-03-17T06:52:38.556Z,1008.48
2017-03-17T06:53:19.211Z,1008.54
2017-03-17T06:53:59.791Z,1008.53
2017-03-17T06:54:40.516Z,1008.56
2017-03-17T06:55:21.171Z,1008.56
2017-03-17T06:56:01.755Z,1008.57
2017-03-17T06:56:42.594Z,1008.54
2017-03-17T06:57:23.128Z,1008.55
2017-03-17T06:58:03.707Z,1008.57
2017-03-17T06:58:45.378Z,1008.56
2017-03-17T06:59:27.058Z,1008.56
2017-03-17T07:00:07.722Z,1008.58
2017-03-17T07:00:48.517Z,1008.59
2017-03-17T07:01:29.118Z,1008.62
2017-03-17T07:02:09.899Z,1008.63
2017-03-17T07:02:51.551Z,1008.63
2017-03-17T07:03:32.127Z,1008.66
2017-03-17T07:04:13.394Z,1008.66
2017-03-17T07:04:53.968Z,1008.68
2017-03-17T07:05:34.536Z,1008.7
2017-03-17T07:06:15.118Z,1008.76
2017-03-17T07:06:55.699Z,1008.76
2017-03-17T07:07:36.252Z,1008.77
2017-03-17T07:08:16.819Z,1008.77
2017-03-17T07:08:57.381Z,1008.82
2017-03-17T07:09:38.057Z,1008.83
2017-03-17T07:10:18.635Z,1008.83
2017-03-17T07:10:59.234Z,1008.84
2017-03-17T07:11:39.830Z,1008.86
2017-03-17T07:12:21.422Z,1008.91
2017-03-17T07:13:01.998Z,1008.94
2017-03-17T07:13:42.576Z,1008.89
2017-03-17T07:14:23.148Z,1008.93
2017-03-17T07:15:03.714Z,1008.95
2017-03-17T07:15:44.294Z,1008.94
2017-03-17T07:16:25.895Z,1008.96
2017-03-17T07:17:06.474Z,1008.91
2017-03-17T07:17:47.644Z,1008.95
2017-03-17T07:18:28.217Z,1008.95
2017-03-17T07:19:09.792Z,1009.01
2017-03-17T07:19:50.362Z,1008.99
2017-03-17T07:20:30.929Z,1009
2017-03-17T07:21:11.481Z,1008.99
2017-03-17T07:21:52.058Z,1009.01
2017-03-17T07:22:32.612Z,1009.01
2017-03-17T07:23:13.235Z,1009.04
2017-03-17T07:23:53.812Z,1009.01
2017-03-17T07:24:34.399Z,1009.05
2017-03-17T07:25:14.975Z,1009.06
2017-03-17T07:25:55.562Z,1009.08
2017-03-17T07:26:36.122Z,1009.01
2017-03-17T07:27:16.719Z,1009.09
2017-03-17T07:27:57.281Z,1009.08
2017-03-17T07:28:37.873Z,1009.14
2017-03-17T07:29:18.453Z,1009.1
2017-03-17T07:29:59.022Z,1009.12
2017-03-17T07:30:39.586Z,1009.16
2017-03-17T07:31:20.176Z,1009.15
2017-03-17T07:32:00.796Z,1009.2
2017-03-17T07:32:42.360Z,1009.22
2017-03-17T07:33:22.930Z,1009.19
2017-03-17T07:34:03.510Z,1009.2
2017-03-17T07:34:44.088Z,1009.19
2017-03-17T07:35:24.653Z,1009.25
2017-03-17T07:36:06.231Z,1009.19
2017-03-17T07:36:47.850Z,1009.18
2017-03-17T07:37:28.491Z,1009.2
2017-03-17T07:38:09.122Z,1009.2
2017-03-17T07:38:49.738Z,1009.16
2017-03-17T07:39:31.353Z,1009.21
2017-03-17T07:40:11.975Z,1009.18
2017-03-17T07:40:52.586Z,1009.2
2017-03-17T07:41:33.160Z,1009.2
2017-03-17T07:42:13.739Z,1009.2
2017-03-17T07:42:54.297Z,1009.16
2017-03-17T07:43:34.898Z,1009.16
2017-03-17T07:44:16.461Z,1009.16
2017-03-17T07:44:57.062Z,1009.09
2017-03-17T07:45:37.623Z,1009.16
2017-03-17T07:46:18.216Z,1009.1
2017-03-17T07:46:58.807Z,1009.12
2017-03-17T07:47:39.427Z,1009.09
2017-03-17T07:48:20.031Z,1009.12
2017-03-17T07:49:00.640Z,1009.1
2017-03-17T07:49:41.238Z,1009.12
2017-03-17T07:50:21.829Z,1009.11
2017-03-17T07:51:02.435Z,1009.16
2017-03-17T07:51:42.997Z,1009.13
2017-03-17T07:52:23.572Z,1009.14
2017-03-17T07:53:04.174Z,1009.13
2017-03-17T07:53:44.763Z,1009.17
2017-03-17T07:54:26.160Z,1009.2
2017-03-17T07:55:08.742Z,1009.21
2017-03-17T07:55:49.316Z,1009.21
2017-03-17T07:56:31.908Z,1009.23
2017-03-17T07:57:14.507Z,1009.16
2017-03-17T07:57:57.109Z,1009.18
2017-03-17T07:58:37.693Z,1009.23
2017-03-17T07:59:18.342Z,1009.2
2017-03-17T07:59:58.926Z,1009.23
2017-03-17T08:00:39.517Z,1009.19
2017-03-17T08:01:20.090Z,1009.14
2017-03-17T08:02:00.659Z,1009.14
2017-03-17T08:02:41.246Z,1009.1
2017-03-17T08:03:21.825Z,1009.14
2017-03-17T08:04:02.445Z,1009.05
2017-03-17T08:04:43.081Z,1009.12
2017-03-17T08:05:23.619Z,1009.13
2017-03-17T08:06:04.187Z,1009.13
2017-03-17T08:06:45.763Z,1009.12
2017-03-17T08:07:26.356Z,1009.06
2017-03-17T08:08:06.904Z,1009.1
2017-03-17T08:08:48.499Z,1009.07
2017-03-17T08:09:29.106Z,1009.05
2017-03-17T08:10:09.711Z,1009.02
2017-03-17T08:10:50.304Z,1009.02
2017-03-17T08:11:30.889Z,1009.08
2017-03-17T08:12:11.480Z,1009.02
2017-03-17T08:12:52.042Z,1009.07
2017-03-17T08:13:32.603Z,1009.02
2017-03-17T08:14:13.156Z,1009.02
2017-03-17T08:14:53.744Z,1009.03
2017-03-17T08:15:34.321Z,1009.03
2017-03-17T08:16:14.889Z,1009.03
2017-03-17T08:16:55.481Z,1009.04
2017-03-17T08:17:36.068Z,1009.05
2017-03-17T08:18:16.636Z,1009.01
2017-03-17T08:18:57.211Z,1009
2017-03-17T08:19:37.779Z,1008.98
2017-03-17T08:20:18.349Z,1008.99
2017-03-17T08:20:58.910Z,1009.04
2017-03-17T08:21:39.494Z,1009.06
2017-03-17T08:22:20.069Z,1009.05
2017-03-17T08:23:00.657Z,1009.06
2017-03-17T08:23:41.233Z,1009.07
2017-03-17T08:24:21.824Z,1009.12
2017-03-17T08:25:02.401Z,1009.13
2017-03-17T08:25:42.962Z,1009.17
2017-03-17T08:26:23.546Z,1009.16
2017-03-17T08:27:04.106Z,1009.19
2017-03-17T08:27:44.674Z,1009.19
2017-03-17T08:28:25.223Z,1009.2
2017-03-17T08:29:05.789Z,1009.19
2017-03-17T08:29:46.366Z,1009.17
2017-03-17T08:30:26.938Z,1009.19
2017-03-17T08:31:07.507Z,1009.14
2017-03-17T08:31:48.079Z,1009.15
2017-03-17T08:32:28.629Z,1009.14
2017-03-17T08:33:09.217Z,1009.11
2017-03-17T08:33:49.791Z,1009.08
2017-03-17T08:34:30.365Z,1009.06
2017-03-17T08:35:10.929Z,1009.01
2017-03-17T08:35:51.521Z,1009.03
2017-03-17T08:36:32.095Z,1008.98
2017-03-17T08:37:12.668Z,1008.94
2017-03-17T08:37:53.242Z,1008.95
2017-03-17T08:38:33.808Z,1009.01
2017-03-17T08:39:14.387Z,1009.02
2017-03-17T08:39:54.952Z,1009.09
2017-03-17T08:40:35.532Z,1009.1
2017-03-17T08:41:16.105Z,1009.12
2017-03-17T08:41:56.691Z,1009.13
2017-03-17T08:42:37.276Z,1009.11
2017-03-17T08:43:17.853Z,1009.13
2017-03-17T08:43:59.428Z,1009.14
2017-03-17T08:44:40.004Z,1009.2
2017-03-17T08:45:21.578Z,1009.36
2017-03-17T08:46:02.143Z,1009.33
2017-03-17T08:46:42.730Z,1009.28
2017-03-17T08:47:23.298Z,1009.22
2017-03-17T08:48:03.888Z,1009.12
2017-03-17T08:48:44.462Z,1009.01
2017-03-17T08:49:25.104Z,1009.06
2017-03-17T08:50:05.663Z,1009.08
2017-03-17T08:50:46.234Z,1009.08
2017-03-17T08:51:26.851Z,1009.16
2017-03-17T08:52:07.429Z,1009.17
2017-03-17T08:52:48.014Z,1009.19
2017-03-17T08:53:28.566Z,1009.21
2017-03-17T08:54:09.152Z,1009.17
2017-03-17T08:54:49.717Z,1009.18
2017-03-17T08:55:30.306Z,1009.21
2017-03-17T08:56:10.869Z,1009.22
2017-03-17T08:56:51.453Z,1009.19
2017-03-17T08:57:32.042Z,1009.16
2017-03-17T08:58:12.619Z,1009.15
2017-03-17T08:58:53.205Z,1009.07
2017-03-17T08:59:33.770Z,1009.04
2017-03-17T09:00:14.343Z,1009.13
2017-03-17T09:00:54.931Z,1009.09
2017-03-17T09:01:35.521Z,1009.11
2017-03-17T09:02:16.086Z,1009.15
2017-03-17T09:02:56.674Z,1009.2
2017-03-17T09:03:37.237Z,1009.16
2017-03-17T09:04:17.819Z,1009.19
2017-03-17T09:04:58.404Z,1009.17
2017-03-17T09:05:39.160Z,1009.14
2017-03-17T09:06:19.810Z,1009.15
2017-03-17T09:07:00.464Z,1009.07
2017-03-17T09:07:41.120Z,1009.05
2017-03-17T09:08:21.739Z,1009.09
2017-03-17T09:09:17.955Z,1009.04
2017-03-17T10:24:22.265Z,1009.39
2017-03-17T10:25:02.855Z,1009.33
2017-03-17T10:25:44.593Z,1009.3
2017-03-17T10:26:30.039Z,1009.34
2017-03-17T10:27:10.610Z,1009.26
2017-03-17T10:27:53.317Z,1009.26
2017-03-17T10:40:55.469Z,1009.29
2017-03-17T10:41:43.158Z,1009.32
2017-03-17T10:42:38.535Z,1009.3
2017-03-17T10:43:19.196Z,1009.35
2017-03-17T10:44:04.551Z,1009.33
2017-03-17T10:46:31.388Z,1009.36
2017-03-17T10:47:23.924Z,1009.39
2017-03-17T10:52:02.555Z,1009.28
2017-03-17T10:52:43.124Z,1009.3
2017-03-17T10:53:23.762Z,1009.34
2017-03-17T10:56:11.187Z,1009.27
2017-03-17T10:56:51.753Z,1009.22
2017-03-17T10:57:32.380Z,1009.23
2017-03-17T10:58:13.964Z,1009.29
2017-03-17T10:58:54.526Z,1009.25
2017-03-17T10:59:36.153Z,1009.31
2017-03-17T11:00:18.776Z,1009.33
2017-03-17T11:01:03.946Z,1009.31
2017-03-17T11:01:44.549Z,1009.3
2017-03-17T11:02:29.863Z,1009.33
2017-03-17T11:31:43.462Z,1009.55
2017-03-17T11:32:24.050Z,1009.57
2017-03-17T11:33:19.493Z,1009.56
2017-03-17T11:34:01.087Z,1009.55
2017-03-17T11:34:43.698Z,1009.58
2017-03-17T11:35:24.274Z,1009.59
2017-03-17T11:36:04.971Z,1009.59
2017-03-17T11:36:45.566Z,1009.61
2017-03-17T11:37:26.200Z,1009.58
2017-03-17T11:38:06.769Z,1009.56
2017-03-17T11:38:49.399Z,1009.59
2017-03-17T11:39:30.012Z,1009.56
2017-03-17T11:40:10.652Z,1009.56
2017-03-17T11:40:51.249Z,1009.55
2017-03-17T11:41:36.542Z,1009.46
2017-03-17T11:42:18.170Z,1009.49
2017-03-17T11:51:47.414Z,1009.33
2017-03-17T11:52:28.965Z,1009.3
2017-03-17T11:53:09.619Z,1009.31
2017-03-17T11:53:50.186Z,1009.32
2017-03-17T11:54:32.825Z,1009.3
2017-03-17T11:55:13.420Z,1009.31
2017-03-17T11:55:58.893Z,1009.28
2017-03-17T11:56:39.477Z,1009.27
2017-03-17T11:57:20.166Z,1009.27
2017-03-17T11:58:00.916Z,1009.27
2017-03-17T11:58:41.605Z,1009.27
2017-03-17T11:59:22.179Z,1009.26
2017-03-17T12:00:13.658Z,1009.28
2017-03-17T12:00:54.232Z,1009.27
2017-03-17T12:01:39.720Z,1009.25
2017-03-17T12:02:20.452Z,1009.24
2017-03-17T12:03:01.022Z,1009.26
2017-03-17T12:03:42.654Z,1009.29
2017-03-17T12:04:29.144Z,1009.27
2017-03-17T12:05:09.847Z,1009.27
2017-03-17T12:05:50.478Z,1009.29
2017-03-17T12:06:41.656Z,1009.25
2017-03-17T12:07:22.308Z,1009.27
2017-03-17T12:08:03.001Z,1009.31
2017-03-17T12:08:45.656Z,1009.33
2017-03-17T12:14:12.713Z,1009.11
2017-03-17T12:14:53.283Z,1009.17
2017-03-17T12:15:33.916Z,1009.14
2017-03-17T12:16:14.564Z,1009.09
2017-03-17T12:16:55.144Z,1009.06
2017-03-17T12:17:35.714Z,1009
2017-03-17T12:18:16.421Z,1008.97
2017-03-17T12:18:56.984Z,1008.98
2017-03-17T12:19:37.624Z,1008.96
2017-03-17T12:20:18.275Z,1008.92
2017-03-17T12:20:58.835Z,1008.91
2017-03-17T12:21:39.478Z,1008.88
2017-03-17T12:22:20.133Z,1008.9
2017-03-17T12:23:00.716Z,1008.93
2017-03-17T12:23:41.336Z,1009.01
2017-03-17T12:24:22.003Z,1008.98
2017-03-17T12:25:02.626Z,1008.93
2017-03-17T12:25:43.296Z,1008.92
2017-03-17T12:26:24.062Z,1008.92
2017-03-17T12:27:04.868Z,1008.88
2017-03-17T12:27:45.573Z,1008.91
2017-03-17T12:28:26.211Z,1008.87
2017-03-17T12:29:06.776Z,1008.88
2017-03-17T12:29:47.473Z,1008.9
2017-03-17T12:30:28.170Z,1008.89
2017-03-17T12:31:08.821Z,1008.91
2017-03-17T12:31:49.387Z,1008.85
2017-03-17T12:32:30.034Z,1008.9
2017-03-17T12:33:10.682Z,1008.87
2017-03-17T12:33:51.249Z,1008.93
2017-03-17T12:34:31.930Z,1008.88
2017-03-17T12:35:12.653Z,1008.85
2017-03-17T12:35:54.319Z,1008.95
2017-03-17T12:36:34.901Z,1008.81
2017-03-17T12:37:15.579Z,1008.85
2017-03-17T12:37:56.281Z,1008.78
2017-03-17T12:38:37.034Z,1008.88
2017-03-17T12:39:17.688Z,1008.79
2017-03-17T12:39:58.333Z,1008.84
2017-03-17T12:40:38.991Z,1008.86
2017-03-17T12:41:19.648Z,1008.88
2017-03-17T12:42:00.397Z,1008.84
2017-03-17T12:42:41.066Z,1008.78
2017-03-17T12:43:21.705Z,1008.85
2017-03-17T12:44:02.283Z,1008.79
2017-03-17T12:44:42.957Z,1008.82
2017-03-17T12:45:23.570Z,1008.77
2017-03-17T12:46:04.214Z,1008.83
2017-03-17T12:46:44.792Z,1008.79
2017-03-17T12:47:25.469Z,1008.8
2017-03-17T12:48:06.171Z,1008.82
2017-03-17T12:48:46.826Z,1008.77
2017-03-17T12:49:27.406Z,1008.81
2017-03-17T12:50:08.119Z,1008.84